sensor_id;sensor_type;location;lat;lon;timestamp;P1;durP1;ratioP1;P2;durP2;ratioP2
23444;SDS011;11895;48.738;9.320;2023-04-25T00:00:03;4.45;;;2.70;;
23444;SDS011;11895;48.738;9.320;2023-04-25T00:02:38;5.78;;;2.42;;
23444;SDS011;11895;48.738;9.320;2023-04-25T00:05:06;3.15;;;2.50;;
23444;SDS011;11895;48.738;9.320;2023-04-25T00:07:35;4.28;;;2.30;;
23444;SDS011;11895;48.738;9.320;2023-04-25T00:10:04;6.10;;;2.60;;
23444;SDS011;11895;48.738;9.320;2023-04-25T00:12:33;8.25;;;2.88;;
23444;SDS011;11895;48.738;9.320;2023-04-25T00:15:02;4.32;;;2.72;;
23444;SDS011;11895;48.738;9.320;2023-04-25T00:17:31;4.80;;;2.72;;
23444;SDS011;11895;48.738;9.320;2023-04-25T00:19:59;5.30;;;2.50;;
23444;SDS011;11895;48.738;9.320;2023-04-25T00:22:31;8.93;;;3.00;;
23444;SDS011;11895;48.738;9.320;2023-04-25T00:25:00;5.85;;;3.15;;
23444;SDS011;11895;48.738;9.320;2023-04-25T00:27:30;3.97;;;2.15;;
23444;SDS011;11895;48.738;9.320;2023-04-25T00:29:58;5.37;;;2.63;;
23444;SDS011;11895;48.738;9.320;2023-04-25T00:32:26;5.17;;;2.50;;
23444;SDS011;11895;48.738;9.320;2023-04-25T00:34:54;4.03;;;2.22;;
23444;SDS011;11895;48.738;9.320;2023-04-25T00:37:24;5.15;;;2.40;;
23444;SDS011;11895;48.738;9.320;2023-04-25T00:39:52;6.28;;;2.83;;
23444;SDS011;11895;48.738;9.320;2023-04-25T00:42:22;3.10;;;2.30;;
23444;SDS011;11895;48.738;9.320;2023-04-25T00:44:51;4.60;;;2.50;;
23444;SDS011;11895;48.738;9.320;2023-04-25T00:47:19;5.00;;;2.80;;
23444;SDS011;11895;48.738;9.320;2023-04-25T00:49:48;4.95;;;2.85;;
23444;SDS011;11895;48.738;9.320;2023-04-25T00:52:16;6.10;;;2.92;;
23444;SDS011;11895;48.738;9.320;2023-04-25T00:54:43;11.23;;;5.20;;
23444;SDS011;11895;48.738;9.320;2023-04-25T00:57:11;6.32;;;3.20;;
23444;SDS011;11895;48.738;9.320;2023-04-25T00:59:39;6.30;;;3.10;;
23444;SDS011;11895;48.738;9.320;2023-04-25T01:02:12;4.60;;;3.00;;
23444;SDS011;11895;48.738;9.320;2023-04-25T01:04:41;5.70;;;3.28;;
23444;SDS011;11895;48.738;9.320;2023-04-25T01:07:09;3.85;;;2.70;;
23444;SDS011;11895;48.738;9.320;2023-04-25T01:09:37;4.90;;;2.60;;
23444;SDS011;11895;48.738;9.320;2023-04-25T01:12:07;4.40;;;2.67;;
23444;SDS011;11895;48.738;9.320;2023-04-25T01:14:35;5.57;;;2.78;;
23444;SDS011;11895;48.738;9.320;2023-04-25T01:17:04;6.25;;;2.83;;
23444;SDS011;11895;48.738;9.320;2023-04-25T01:19:34;4.05;;;2.90;;
23444;SDS011;11895;48.738;9.320;2023-04-25T01:22:02;3.30;;;2.15;;
23444;SDS011;11895;48.738;9.320;2023-04-25T01:24:32;11.40;;;3.30;;
23444;SDS011;11895;48.738;9.320;2023-04-25T01:27:00;4.22;;;2.45;;
23444;SDS011;11895;48.738;9.320;2023-04-25T01:29:28;9.88;;;3.55;;
23444;SDS011;11895;48.738;9.320;2023-04-25T01:31:58;5.32;;;2.80;;
23444;SDS011;11895;48.738;9.320;2023-04-25T01:34:27;7.40;;;2.67;;
23444;SDS011;11895;48.738;9.320;2023-04-25T01:36:57;8.27;;;3.03;;
23444;SDS011;11895;48.738;9.320;2023-04-25T01:39:28;8.75;;;3.00;;
23444;SDS011;11895;48.738;9.320;2023-04-25T01:41:56;5.00;;;3.30;;
23444;SDS011;11895;48.738;9.320;2023-04-25T01:44:26;4.10;;;2.83;;
23444;SDS011;11895;48.738;9.320;2023-04-25T01:46:54;5.35;;;2.72;;
23444;SDS011;11895;48.738;9.320;2023-04-25T01:49:22;6.82;;;2.50;;
23444;SDS011;11895;48.738;9.320;2023-04-25T01:51:50;5.18;;;3.03;;
23444;SDS011;11895;48.738;9.320;2023-04-25T01:54:18;4.37;;;2.87;;
23444;SDS011;11895;48.738;9.320;2023-04-25T01:56:50;5.75;;;3.50;;
23444;SDS011;11895;48.738;9.320;2023-04-25T01:59:20;6.85;;;3.25;;
23444;SDS011;11895;48.738;9.320;2023-04-25T02:02:08;8.68;;;3.88;;
23444;SDS011;11895;48.738;9.320;2023-04-25T02:04:36;7.05;;;3.72;;
23444;SDS011;11895;48.738;9.320;2023-04-25T02:07:05;4.30;;;3.25;;
23444;SDS011;11895;48.738;9.320;2023-04-25T02:09:47;6.70;;;3.33;;
23444;SDS011;11895;48.738;9.320;2023-04-25T02:12:17;5.85;;;3.28;;
23444;SDS011;11895;48.738;9.320;2023-04-25T02:15:23;4.25;;;3.05;;
23444;SDS011;11895;48.738;9.320;2023-04-25T02:17:55;6.90;;;3.38;;
23444;SDS011;11895;48.738;9.320;2023-04-25T02:20:24;5.93;;;3.40;;
23444;SDS011;11895;48.738;9.320;2023-04-25T02:22:53;5.03;;;3.22;;
23444;SDS011;11895;48.738;9.320;2023-04-25T02:25:21;10.00;;;3.47;;
23444;SDS011;11895;48.738;9.320;2023-04-25T02:27:49;6.93;;;2.85;;
23444;SDS011;11895;48.738;9.320;2023-04-25T02:30:18;8.63;;;2.63;;
23444;SDS011;11895;48.738;9.320;2023-04-25T02:32:45;4.78;;;2.70;;
23444;SDS011;11895;48.738;9.320;2023-04-25T02:35:14;5.95;;;2.67;;
23444;SDS011;11895;48.738;9.320;2023-04-25T02:37:42;5.55;;;2.53;;
23444;SDS011;11895;48.738;9.320;2023-04-25T02:40:12;6.00;;;2.42;;
23444;SDS011;11895;48.738;9.320;2023-04-25T02:42:41;4.97;;;2.40;;
23444;SDS011;11895;48.738;9.320;2023-04-25T02:45:09;4.30;;;1.95;;
23444;SDS011;11895;48.738;9.320;2023-04-25T02:47:37;5.28;;;2.75;;
23444;SDS011;11895;48.738;9.320;2023-04-25T02:50:05;8.87;;;2.10;;
23444;SDS011;11895;48.738;9.320;2023-04-25T02:52:34;6.53;;;2.50;;
23444;SDS011;11895;48.738;9.320;2023-04-25T02:55:11;5.18;;;2.45;;
23444;SDS011;11895;48.738;9.320;2023-04-25T02:57:41;4.35;;;2.00;;
23444;SDS011;11895;48.738;9.320;2023-04-25T03:00:12;4.05;;;2.05;;
23444;SDS011;11895;48.738;9.320;2023-04-25T03:02:40;4.85;;;2.50;;
23444;SDS011;11895;48.738;9.320;2023-04-25T03:05:09;4.97;;;2.10;;
23444;SDS011;11895;48.738;9.320;2023-04-25T03:07:38;2.75;;;2.05;;
23444;SDS011;11895;48.738;9.320;2023-04-25T03:10:09;5.10;;;2.50;;
23444;SDS011;11895;48.738;9.320;2023-04-25T03:12:40;4.68;;;2.25;;
23444;SDS011;11895;48.738;9.320;2023-04-25T03:15:08;5.07;;;2.35;;
23444;SDS011;11895;48.738;9.320;2023-04-25T03:17:36;5.28;;;2.00;;
23444;SDS011;11895;48.738;9.320;2023-04-25T03:20:04;3.60;;;1.90;;
23444;SDS011;11895;48.738;9.320;2023-04-25T03:22:36;4.97;;;2.20;;
23444;SDS011;11895;48.738;9.320;2023-04-25T03:25:04;4.20;;;2.42;;
23444;SDS011;11895;48.738;9.320;2023-04-25T03:27:32;5.47;;;2.00;;
23444;SDS011;11895;48.738;9.320;2023-04-25T03:30:01;6.32;;;2.47;;
23444;SDS011;11895;48.738;9.320;2023-04-25T03:32:30;3.58;;;2.10;;
23444;SDS011;11895;48.738;9.320;2023-04-25T03:34:58;4.10;;;2.47;;
23444;SDS011;11895;48.738;9.320;2023-04-25T03:37:27;6.20;;;2.33;;
23444;SDS011;11895;48.738;9.320;2023-04-25T03:39:54;4.13;;;2.13;;
23444;SDS011;11895;48.738;9.320;2023-04-25T03:42:26;5.00;;;2.30;;
23444;SDS011;11895;48.738;9.320;2023-04-25T03:44:55;7.90;;;2.33;;
23444;SDS011;11895;48.738;9.320;2023-04-25T03:47:23;5.68;;;2.38;;
23444;SDS011;11895;48.738;9.320;2023-04-25T03:49:53;5.25;;;2.50;;
23444;SDS011;11895;48.738;9.320;2023-04-25T03:52:22;4.68;;;2.40;;
23444;SDS011;11895;48.738;9.320;2023-04-25T03:54:50;4.95;;;2.53;;
23444;SDS011;11895;48.738;9.320;2023-04-25T03:57:19;4.88;;;2.90;;
23444;SDS011;11895;48.738;9.320;2023-04-25T03:59:47;4.60;;;2.50;;
23444;SDS011;11895;48.738;9.320;2023-04-25T04:02:15;3.22;;;2.35;;
23444;SDS011;11895;48.738;9.320;2023-04-25T04:04:44;5.13;;;2.45;;
23444;SDS011;11895;48.738;9.320;2023-04-25T04:07:13;5.18;;;2.15;;
23444;SDS011;11895;48.738;9.320;2023-04-25T04:09:51;4.70;;;2.27;;
23444;SDS011;11895;48.738;9.320;2023-04-25T04:12:25;3.05;;;2.10;;
23444;SDS011;11895;48.738;9.320;2023-04-25T04:14:56;3.72;;;2.67;;
23444;SDS011;11895;48.738;9.320;2023-04-25T04:17:28;6.57;;;2.15;;
23444;SDS011;11895;48.738;9.320;2023-04-25T04:19:57;4.35;;;2.30;;
23444;SDS011;11895;48.738;9.320;2023-04-25T04:22:27;3.58;;;2.35;;
23444;SDS011;11895;48.738;9.320;2023-04-25T04:24:59;5.82;;;2.40;;
23444;SDS011;11895;48.738;9.320;2023-04-25T04:27:50;4.68;;;2.20;;
23444;SDS011;11895;48.738;9.320;2023-04-25T04:30:33;5.60;;;2.47;;
23444;SDS011;11895;48.738;9.320;2023-04-25T04:33:06;3.90;;;2.72;;
23444;SDS011;11895;48.738;9.320;2023-04-25T04:35:35;3.80;;;2.30;;
23444;SDS011;11895;48.738;9.320;2023-04-25T04:38:04;3.58;;;1.98;;
23444;SDS011;11895;48.738;9.320;2023-04-25T04:40:33;5.78;;;2.38;;
23444;SDS011;11895;48.738;9.320;2023-04-25T04:43:10;3.17;;;2.15;;
23444;SDS011;11895;48.738;9.320;2023-04-25T04:46:01;4.75;;;2.40;;
23444;SDS011;11895;48.738;9.320;2023-04-25T04:48:31;5.20;;;2.58;;
23444;SDS011;11895;48.738;9.320;2023-04-25T04:51:19;5.95;;;2.47;;
23444;SDS011;11895;48.738;9.320;2023-04-25T04:53:52;3.83;;;2.45;;
23444;SDS011;11895;48.738;9.320;2023-04-25T04:56:37;3.67;;;2.22;;
23444;SDS011;11895;48.738;9.320;2023-04-25T04:59:28;5.20;;;2.78;;
23444;SDS011;11895;48.738;9.320;2023-04-25T05:02:06;4.20;;;2.47;;
23444;SDS011;11895;48.738;9.320;2023-04-25T05:04:46;8.25;;;2.60;;
23444;SDS011;11895;48.738;9.320;2023-04-25T05:07:49;6.45;;;2.70;;
23444;SDS011;11895;48.738;9.320;2023-04-25T05:10:53;4.15;;;2.55;;
23444;SDS011;11895;48.738;9.320;2023-04-25T05:13:53;5.50;;;2.75;;
23444;SDS011;11895;48.738;9.320;2023-04-25T05:16:40;6.18;;;2.97;;
23444;SDS011;11895;48.738;9.320;2023-04-25T05:19:38;7.57;;;2.80;;
23444;SDS011;11895;48.738;9.320;2023-04-25T05:22:23;7.43;;;2.53;;
23444;SDS011;11895;48.738;9.320;2023-04-25T05:24:59;7.10;;;2.75;;
23444;SDS011;11895;48.738;9.320;2023-04-25T05:27:36;5.38;;;2.70;;
23444;SDS011;11895;48.738;9.320;2023-04-25T05:30:08;6.93;;;2.90;;
23444;SDS011;11895;48.738;9.320;2023-04-25T05:32:55;4.40;;;2.92;;
23444;SDS011;11895;48.738;9.320;2023-04-25T05:35:23;9.70;;;4.15;;
23444;SDS011;11895;48.738;9.320;2023-04-25T05:37:51;6.97;;;2.72;;
23444;SDS011;11895;48.738;9.320;2023-04-25T05:40:28;5.47;;;3.25;;
23444;SDS011;11895;48.738;9.320;2023-04-25T05:43:11;6.95;;;3.17;;
23444;SDS011;11895;48.738;9.320;2023-04-25T05:46:02;5.68;;;3.13;;
23444;SDS011;11895;48.738;9.320;2023-04-25T05:48:41;15.07;;;2.70;;
23444;SDS011;11895;48.738;9.320;2023-04-25T05:51:36;5.00;;;2.47;;
23444;SDS011;11895;48.738;9.320;2023-04-25T05:54:25;5.55;;;2.22;;
23444;SDS011;11895;48.738;9.320;2023-04-25T05:56:56;9.20;;;3.03;;
23444;SDS011;11895;48.738;9.320;2023-04-25T05:59:24;4.85;;;2.78;;
23444;SDS011;11895;48.738;9.320;2023-04-25T06:01:55;9.38;;;2.70;;
23444;SDS011;11895;48.738;9.320;2023-04-25T06:04:23;6.72;;;2.78;;
23444;SDS011;11895;48.738;9.320;2023-04-25T06:06:53;4.15;;;2.47;;
23444;SDS011;11895;48.738;9.320;2023-04-25T06:09:21;6.57;;;2.55;;
23444;SDS011;11895;48.738;9.320;2023-04-25T06:11:49;12.77;;;7.20;;
23444;SDS011;11895;48.738;9.320;2023-04-25T06:14:16;8.43;;;3.33;;
23444;SDS011;11895;48.738;9.320;2023-04-25T06:16:48;4.70;;;2.38;;
23444;SDS011;11895;48.738;9.320;2023-04-25T06:19:15;2.70;;;2.35;;
23444;SDS011;11895;48.738;9.320;2023-04-25T06:21:43;2.58;;;1.98;;
23444;SDS011;11895;48.738;9.320;2023-04-25T06:24:11;3.70;;;2.30;;
23444;SDS011;11895;48.738;9.320;2023-04-25T06:26:39;2.95;;;2.05;;
23444;SDS011;11895;48.738;9.320;2023-04-25T06:29:10;7.10;;;2.28;;
23444;SDS011;11895;48.738;9.320;2023-04-25T06:31:38;4.57;;;2.08;;
23444;SDS011;11895;48.738;9.320;2023-04-25T06:34:06;4.20;;;2.25;;
23444;SDS011;11895;48.738;9.320;2023-04-25T06:36:41;3.40;;;2.15;;
23444;SDS011;11895;48.738;9.320;2023-04-25T06:39:12;4.13;;;2.08;;
23444;SDS011;11895;48.738;9.320;2023-04-25T06:41:40;4.85;;;2.22;;
23444;SDS011;11895;48.738;9.320;2023-04-25T06:44:28;2.70;;;2.03;;
23444;SDS011;11895;48.738;9.320;2023-04-25T06:46:57;5.22;;;2.42;;
23444;SDS011;11895;48.738;9.320;2023-04-25T06:49:25;3.27;;;2.10;;
23444;SDS011;11895;48.738;9.320;2023-04-25T06:51:53;4.90;;;2.38;;
23444;SDS011;11895;48.738;9.320;2023-04-25T06:54:21;3.75;;;2.33;;
23444;SDS011;11895;48.738;9.320;2023-04-25T06:56:58;3.65;;;2.60;;
23444;SDS011;11895;48.738;9.320;2023-04-25T06:59:27;6.50;;;3.00;;
23444;SDS011;11895;48.738;9.320;2023-04-25T07:01:55;6.45;;;2.80;;
23444;SDS011;11895;48.738;9.320;2023-04-25T07:04:25;3.95;;;2.30;;
23444;SDS011;11895;48.738;9.320;2023-04-25T07:06:55;5.13;;;2.15;;
23444;SDS011;11895;48.738;9.320;2023-04-25T07:09:36;5.60;;;2.90;;
23444;SDS011;11895;48.738;9.320;2023-04-25T07:12:04;5.95;;;2.30;;
23444;SDS011;11895;48.738;9.320;2023-04-25T07:14:33;6.22;;;2.35;;
23444;SDS011;11895;48.738;9.320;2023-04-25T07:17:01;3.30;;;2.40;;
23444;SDS011;11895;48.738;9.320;2023-04-25T07:19:31;3.55;;;2.47;;
23444;SDS011;11895;48.738;9.320;2023-04-25T07:22:00;5.38;;;2.65;;
23444;SDS011;11895;48.738;9.320;2023-04-25T07:24:29;3.87;;;2.13;;
23444;SDS011;11895;48.738;9.320;2023-04-25T07:26:56;4.82;;;2.83;;
23444;SDS011;11895;48.738;9.320;2023-04-25T07:29:45;3.33;;;2.42;;
23444;SDS011;11895;48.738;9.320;2023-04-25T07:32:13;7.43;;;3.88;;
23444;SDS011;11895;48.738;9.320;2023-04-25T07:34:42;8.98;;;3.97;;
23444;SDS011;11895;48.738;9.320;2023-04-25T07:37:10;4.37;;;2.80;;
23444;SDS011;11895;48.738;9.320;2023-04-25T07:39:51;5.35;;;2.95;;
23444;SDS011;11895;48.738;9.320;2023-04-25T07:42:20;5.07;;;2.80;;
23444;SDS011;11895;48.738;9.320;2023-04-25T07:44:48;5.82;;;3.25;;
23444;SDS011;11895;48.738;9.320;2023-04-25T07:47:16;6.20;;;2.93;;
23444;SDS011;11895;48.738;9.320;2023-04-25T07:49:49;3.90;;;2.92;;
23444;SDS011;11895;48.738;9.320;2023-04-25T07:52:16;6.10;;;2.83;;
23444;SDS011;11895;48.738;9.320;2023-04-25T07:54:50;10.32;;;3.33;;
23444;SDS011;11895;48.738;9.320;2023-04-25T07:57:25;4.05;;;3.42;;
23444;SDS011;11895;48.738;9.320;2023-04-25T07:59:54;4.75;;;3.58;;
23444;SDS011;11895;48.738;9.320;2023-04-25T08:02:23;5.60;;;3.80;;
23444;SDS011;11895;48.738;9.320;2023-04-25T08:04:55;5.50;;;4.10;;
23444;SDS011;11895;48.738;9.320;2023-04-25T08:07:23;8.00;;;4.07;;
23444;SDS011;11895;48.738;9.320;2023-04-25T08:09:54;4.72;;;3.78;;
23444;SDS011;11895;48.738;9.320;2023-04-25T08:12:27;5.88;;;4.07;;
23444;SDS011;11895;48.738;9.320;2023-04-25T08:14:55;9.60;;;4.40;;
23444;SDS011;11895;48.738;9.320;2023-04-25T08:17:29;7.45;;;4.97;;
23444;SDS011;11895;48.738;9.320;2023-04-25T08:19:57;6.83;;;5.47;;
23444;SDS011;11895;48.738;9.320;2023-04-25T08:22:29;10.27;;;5.40;;
23444;SDS011;11895;48.738;9.320;2023-04-25T08:25:17;11.75;;;6.00;;
23444;SDS011;11895;48.738;9.320;2023-04-25T08:27:45;8.20;;;6.00;;
23444;SDS011;11895;48.738;9.320;2023-04-25T08:30:15;10.98;;;6.60;;
23444;SDS011;11895;48.738;9.320;2023-04-25T08:32:43;10.38;;;6.57;;
23444;SDS011;11895;48.738;9.320;2023-04-25T08:35:37;11.75;;;6.65;;
23444;SDS011;11895;48.738;9.320;2023-04-25T08:38:06;11.48;;;6.75;;
23444;SDS011;11895;48.738;9.320;2023-04-25T08:40:35;10.90;;;7.35;;
23444;SDS011;11895;48.738;9.320;2023-04-25T08:43:12;14.13;;;7.80;;
23444;SDS011;11895;48.738;9.320;2023-04-25T08:45:41;13.77;;;6.95;;
23444;SDS011;11895;48.738;9.320;2023-04-25T08:48:15;12.60;;;7.35;;
23444;SDS011;11895;48.738;9.320;2023-04-25T08:53:12;11.32;;;7.55;;
23444;SDS011;11895;48.738;9.320;2023-04-25T08:55:46;11.98;;;8.20;;
23444;SDS011;11895;48.738;9.320;2023-04-25T09:00:45;11.77;;;7.63;;
23444;SDS011;11895;48.738;9.320;2023-04-25T09:03:16;14.05;;;8.35;;
23444;SDS011;11895;48.738;9.320;2023-04-25T09:05:47;10.30;;;7.10;;
23444;SDS011;11895;48.738;9.320;2023-04-25T09:08:16;10.30;;;7.82;;
23444;SDS011;11895;48.738;9.320;2023-04-25T09:10:44;14.18;;;8.85;;
23444;SDS011;11895;48.738;9.320;2023-04-25T09:13:14;12.80;;;8.00;;
23444;SDS011;11895;48.738;9.320;2023-04-25T09:16:14;17.58;;;9.20;;
23444;SDS011;11895;48.738;9.320;2023-04-25T09:19:02;13.15;;;9.00;;
23444;SDS011;11895;48.738;9.320;2023-04-25T09:24:03;12.20;;;8.52;;
23444;SDS011;11895;48.738;9.320;2023-04-25T09:26:34;15.98;;;8.30;;
23444;SDS011;11895;48.738;9.320;2023-04-25T09:29:06;11.95;;;9.10;;
23444;SDS011;11895;48.738;9.320;2023-04-25T09:31:39;15.80;;;9.30;;
23444;SDS011;11895;48.738;9.320;2023-04-25T09:34:14;14.73;;;9.07;;
23444;SDS011;11895;48.738;9.320;2023-04-25T09:36:53;20.27;;;10.48;;
23444;SDS011;11895;48.738;9.320;2023-04-25T09:39:37;17.83;;;10.60;;
23444;SDS011;11895;48.738;9.320;2023-04-25T09:42:12;16.73;;;10.18;;
23444;SDS011;11895;48.738;9.320;2023-04-25T09:44:43;18.35;;;9.75;;
23444;SDS011;11895;48.738;9.320;2023-04-25T09:47:14;12.57;;;8.88;;
23444;SDS011;11895;48.738;9.320;2023-04-25T09:49:47;15.55;;;10.02;;
23444;SDS011;11895;48.738;9.320;2023-04-25T09:52:21;18.30;;;10.93;;
23444;SDS011;11895;48.738;9.320;2023-04-25T09:55:12;17.83;;;9.00;;
23444;SDS011;11895;48.738;9.320;2023-04-25T09:57:40;18.17;;;9.63;;
23444;SDS011;11895;48.738;9.320;2023-04-25T10:00:10;14.30;;;8.43;;
23444;SDS011;11895;48.738;9.320;2023-04-25T10:02:45;19.15;;;10.13;;
23444;SDS011;11895;48.738;9.320;2023-04-25T10:05:35;15.38;;;9.48;;
23444;SDS011;11895;48.738;9.320;2023-04-25T10:08:05;15.98;;;9.63;;
23444;SDS011;11895;48.738;9.320;2023-04-25T10:10:34;15.68;;;10.48;;
23444;SDS011;11895;48.738;9.320;2023-04-25T10:13:05;19.25;;;10.05;;
23444;SDS011;11895;48.738;9.320;2023-04-25T10:15:34;22.88;;;10.15;;
23444;SDS011;11895;48.738;9.320;2023-04-25T10:18:06;15.32;;;9.70;;
23444;SDS011;11895;48.738;9.320;2023-04-25T10:20:34;16.73;;;10.43;;
23444;SDS011;11895;48.738;9.320;2023-04-25T10:23:06;25.95;;;10.73;;
23444;SDS011;11895;48.738;9.320;2023-04-25T10:25:42;14.57;;;9.02;;
23444;SDS011;11895;48.738;9.320;2023-04-25T10:28:11;13.85;;;8.35;;
23444;SDS011;11895;48.738;9.320;2023-04-25T10:30:56;9.00;;;6.50;;
23444;SDS011;11895;48.738;9.320;2023-04-25T10:33:38;7.47;;;5.78;;
23444;SDS011;11895;48.738;9.320;2023-04-25T10:36:09;18.38;;;6.15;;
23444;SDS011;11895;48.738;9.320;2023-04-25T10:38:42;9.00;;;6.18;;
23444;SDS011;11895;48.738;9.320;2023-04-25T10:41:12;13.48;;;6.65;;
23444;SDS011;11895;48.738;9.320;2023-04-25T10:43:41;8.88;;;6.55;;
23444;SDS011;11895;48.738;9.320;2023-04-25T10:46:29;7.57;;;6.10;;
23444;SDS011;11895;48.738;9.320;2023-04-25T10:49:02;10.82;;;6.18;;
23444;SDS011;11895;48.738;9.320;2023-04-25T10:51:33;9.00;;;5.88;;
23444;SDS011;11895;48.738;9.320;2023-04-25T10:54:21;8.77;;;5.15;;
23444;SDS011;11895;48.738;9.320;2023-04-25T10:56:51;6.68;;;4.60;;
23444;SDS011;11895;48.738;9.320;2023-04-25T10:59:19;8.52;;;5.25;;
23444;SDS011;11895;48.738;9.320;2023-04-25T11:01:55;9.65;;;4.72;;
23444;SDS011;11895;48.738;9.320;2023-04-25T11:04:33;5.55;;;4.05;;
23444;SDS011;11895;48.738;9.320;2023-04-25T11:09:49;6.00;;;3.97;;
23444;SDS011;11895;48.738;9.320;2023-04-25T11:12:20;5.18;;;3.67;;
23444;SDS011;11895;48.738;9.320;2023-04-25T11:15:03;6.35;;;4.22;;
23444;SDS011;11895;48.738;9.320;2023-04-25T11:17:33;12.30;;;4.70;;
23444;SDS011;11895;48.738;9.320;2023-04-25T11:20:02;6.35;;;4.07;;
23444;SDS011;11895;48.738;9.320;2023-04-25T11:22:34;9.60;;;4.32;;
23444;SDS011;11895;48.738;9.320;2023-04-25T11:25:05;9.80;;;5.28;;
23444;SDS011;11895;48.738;9.320;2023-04-25T11:27:59;6.55;;;4.50;;
23444;SDS011;11895;48.738;9.320;2023-04-25T11:30:27;7.40;;;4.45;;
23444;SDS011;11895;48.738;9.320;2023-04-25T11:32:57;9.00;;;3.70;;
23444;SDS011;11895;48.738;9.320;2023-04-25T11:35:25;4.03;;;3.17;;
23444;SDS011;11895;48.738;9.320;2023-04-25T11:37:53;8.32;;;3.53;;
23444;SDS011;11895;48.738;9.320;2023-04-25T11:40:21;7.20;;;3.45;;
23444;SDS011;11895;48.738;9.320;2023-04-25T11:42:49;8.70;;;4.03;;
23444;SDS011;11895;48.738;9.320;2023-04-25T11:45:20;8.00;;;3.85;;
23444;SDS011;11895;48.738;9.320;2023-04-25T11:47:50;5.70;;;3.72;;
23444;SDS011;11895;48.738;9.320;2023-04-25T11:50:18;5.32;;;3.65;;
23444;SDS011;11895;48.738;9.320;2023-04-25T11:52:46;7.53;;;4.45;;
23444;SDS011;11895;48.738;9.320;2023-04-25T11:55:20;5.25;;;4.20;;
23444;SDS011;11895;48.738;9.320;2023-04-25T11:57:49;9.30;;;3.65;;
23444;SDS011;11895;48.738;9.320;2023-04-25T12:00:18;5.38;;;4.13;;
23444;SDS011;11895;48.738;9.320;2023-04-25T12:02:50;7.90;;;4.25;;
23444;SDS011;11895;48.738;9.320;2023-04-25T12:05:26;7.55;;;4.78;;
23444;SDS011;11895;48.738;9.320;2023-04-25T12:08:09;6.43;;;4.75;;
23444;SDS011;11895;48.738;9.320;2023-04-25T12:10:41;5.70;;;4.03;;
23444;SDS011;11895;48.738;9.320;2023-04-25T12:13:19;8.52;;;5.28;;
23444;SDS011;11895;48.738;9.320;2023-04-25T12:15:55;11.60;;;5.47;;
23444;SDS011;11895;48.738;9.320;2023-04-25T12:18:23;9.27;;;5.80;;
23444;SDS011;11895;48.738;9.320;2023-04-25T12:20:54;7.00;;;5.05;;
23444;SDS011;11895;48.738;9.320;2023-04-25T12:23:28;7.73;;;4.90;;
23444;SDS011;11895;48.738;9.320;2023-04-25T12:25:57;7.72;;;5.32;;
23444;SDS011;11895;48.738;9.320;2023-04-25T12:28:25;7.90;;;5.10;;
23444;SDS011;11895;48.738;9.320;2023-04-25T12:31:08;9.15;;;5.40;;
23444;SDS011;11895;48.738;9.320;2023-04-25T12:33:36;11.55;;;5.97;;
23444;SDS011;11895;48.738;9.320;2023-04-25T12:36:06;11.13;;;6.47;;
23444;SDS011;11895;48.738;9.320;2023-04-25T12:38:40;9.30;;;6.50;;
23444;SDS011;11895;48.738;9.320;2023-04-25T12:41:09;11.32;;;6.18;;
23444;SDS011;11895;48.738;9.320;2023-04-25T12:43:37;8.95;;;5.45;;
23444;SDS011;11895;48.738;9.320;2023-04-25T12:46:05;9.68;;;6.95;;
23444;SDS011;11895;48.738;9.320;2023-04-25T12:48:33;9.98;;;6.63;;
23444;SDS011;11895;48.738;9.320;2023-04-25T12:51:01;13.05;;;6.93;;
23444;SDS011;11895;48.738;9.320;2023-04-25T12:53:30;15.02;;;9.07;;
23444;SDS011;11895;48.738;9.320;2023-04-25T12:56:01;11.77;;;8.13;;
23444;SDS011;11895;48.738;9.320;2023-04-25T12:58:29;14.18;;;8.70;;
23444;SDS011;11895;48.738;9.320;2023-04-25T13:00:56;12.73;;;10.00;;
23444;SDS011;11895;48.738;9.320;2023-04-25T13:03:24;12.10;;;8.50;;
23444;SDS011;11895;48.738;9.320;2023-04-25T13:05:53;17.63;;;10.23;;
23444;SDS011;11895;48.738;9.320;2023-04-25T13:08:21;16.77;;;10.07;;
23444;SDS011;11895;48.738;9.320;2023-04-25T13:10:49;21.83;;;12.43;;
23444;SDS011;11895;48.738;9.320;2023-04-25T13:13:16;18.55;;;12.45;;
23444;SDS011;11895;48.738;9.320;2023-04-25T13:15:44;27.75;;;14.60;;
23444;SDS011;11895;48.738;9.320;2023-04-25T13:18:12;23.77;;;14.75;;
23444;SDS011;11895;48.738;9.320;2023-04-25T13:20:41;30.38;;;16.08;;
23444;SDS011;11895;48.738;9.320;2023-04-25T13:23:14;43.30;;;23.52;;
23444;SDS011;11895;48.738;9.320;2023-04-25T13:25:42;45.60;;;23.58;;
23444;SDS011;11895;48.738;9.320;2023-04-25T13:28:10;50.63;;;29.45;;
23444;SDS011;11895;48.738;9.320;2023-04-25T13:30:38;37.28;;;23.13;;
23444;SDS011;11895;48.738;9.320;2023-04-25T13:33:06;42.17;;;25.15;;
23444;SDS011;11895;48.738;9.320;2023-04-25T13:35:34;39.42;;;25.40;;
23444;SDS011;11895;48.738;9.320;2023-04-25T13:38:04;28.15;;;17.55;;
23444;SDS011;11895;48.738;9.320;2023-04-25T13:40:32;19.55;;;13.90;;
23444;SDS011;11895;48.738;9.320;2023-04-25T13:43:02;15.48;;;10.40;;
23444;SDS011;11895;48.738;9.320;2023-04-25T13:45:30;19.25;;;11.25;;
23444;SDS011;11895;48.738;9.320;2023-04-25T13:47:59;19.15;;;12.75;;
23444;SDS011;11895;48.738;9.320;2023-04-25T13:50:27;17.15;;;9.98;;
23444;SDS011;11895;48.738;9.320;2023-04-25T13:52:54;11.70;;;9.15;;
23444;SDS011;11895;48.738;9.320;2023-04-25T13:55:22;15.98;;;10.20;;
23444;SDS011;11895;48.738;9.320;2023-04-25T13:57:50;17.17;;;10.18;;
23444;SDS011;11895;48.738;9.320;2023-04-25T14:00:18;14.65;;;9.98;;
23444;SDS011;11895;48.738;9.320;2023-04-25T14:02:46;17.83;;;10.32;;
23444;SDS011;11895;48.738;9.320;2023-04-25T14:05:16;16.67;;;9.95;;
23444;SDS011;11895;48.738;9.320;2023-04-25T14:08:09;9.90;;;7.00;;
23444;SDS011;11895;48.738;9.320;2023-04-25T14:10:37;13.50;;;8.13;;
23444;SDS011;11895;48.738;9.320;2023-04-25T14:13:05;10.65;;;6.60;;
23444;SDS011;11895;48.738;9.320;2023-04-25T14:15:36;9.25;;;7.40;;
23444;SDS011;11895;48.738;9.320;2023-04-25T14:18:04;13.90;;;8.25;;
23444;SDS011;11895;48.738;9.320;2023-04-25T14:20:32;14.80;;;10.60;;
23444;SDS011;11895;48.738;9.320;2023-04-25T14:23:00;17.17;;;11.27;;
23444;SDS011;11895;48.738;9.320;2023-04-25T14:25:29;16.20;;;11.10;;
23444;SDS011;11895;48.738;9.320;2023-04-25T14:27:58;21.95;;;15.07;;
23444;SDS011;11895;48.738;9.320;2023-04-25T14:30:27;14.65;;;10.02;;
23444;SDS011;11895;48.738;9.320;2023-04-25T14:32:54;12.20;;;7.70;;
23444;SDS011;11895;48.738;9.320;2023-04-25T14:35:22;13.35;;;6.93;;
23444;SDS011;11895;48.738;9.320;2023-04-25T14:37:50;10.75;;;5.70;;
23444;SDS011;11895;48.738;9.320;2023-04-25T14:40:19;14.25;;;6.93;;
23444;SDS011;11895;48.738;9.320;2023-04-25T14:42:49;11.57;;;6.25;;
23444;SDS011;11895;48.738;9.320;2023-04-25T14:45:17;8.17;;;5.63;;
23444;SDS011;11895;48.738;9.320;2023-04-25T14:47:45;8.70;;;6.18;;
23444;SDS011;11895;48.738;9.320;2023-04-25T14:50:13;9.18;;;5.03;;
23444;SDS011;11895;48.738;9.320;2023-04-25T14:52:40;8.02;;;4.78;;
23444;SDS011;11895;48.738;9.320;2023-04-25T14:55:09;10.70;;;4.53;;
23444;SDS011;11895;48.738;9.320;2023-04-25T14:57:37;7.22;;;3.85;;
23444;SDS011;11895;48.738;9.320;2023-04-25T15:00:05;7.30;;;4.43;;
23444;SDS011;11895;48.738;9.320;2023-04-25T15:02:36;6.70;;;4.20;;
23444;SDS011;11895;48.738;9.320;2023-04-25T15:05:04;6.22;;;3.88;;
23444;SDS011;11895;48.738;9.320;2023-04-25T15:07:33;8.55;;;3.90;;
23444;SDS011;11895;48.738;9.320;2023-04-25T15:10:01;6.30;;;3.83;;
23444;SDS011;11895;48.738;9.320;2023-04-25T15:12:29;5.03;;;4.07;;
23444;SDS011;11895;48.738;9.320;2023-04-25T15:14:58;5.88;;;3.78;;
23444;SDS011;11895;48.738;9.320;2023-04-25T15:17:26;7.35;;;4.28;;
23444;SDS011;11895;48.738;9.320;2023-04-25T15:19:57;7.63;;;4.65;;